createdAt,value
2023-03-26T00:00:45.844Z,67.4998
2023-03-26T00:01:52.880Z,67.5496
2023-03-26T00:02:59.821Z,67.5888
2023-03-26T00:04:06.893Z,67.6365
2023-03-26T00:05:13.786Z,67.6843
2023-03-26T00:06:20.795Z,67.7025
2023-03-26T00:07:27.750Z,67.7272
2023-03-26T00:08:34.769Z,67.7222
2023-03-26T00:09:41.707Z,67.7337
2023-03-26T00:10:48.706Z,67.7298
2023-03-26T00:11:55.703Z,67.7495
2023-03-26T00:13:02.716Z,67.7570
2023-03-26T00:14:09.652Z,67.7764
2023-03-26T00:15:16.642Z,67.7673
2023-03-26T00:16:23.639Z,67.7944
2023-03-26T00:17:30.672Z,67.8260
2023-03-26T00:18:37.593Z,67.8513
2023-03-26T00:19:44.597Z,67.8905
2023-03-26T00:20:51.557Z,67.9181
2023-03-26T00:21:58.550Z,67.9763
2023-03-26T00:23:05.525Z,68.0105
2023-03-26T00:24:12.531Z,68.0784
2023-03-26T00:25:19.488Z,68.1650
2023-03-26T00:26:26.505Z,68.2319
2023-03-26T00:27:33.455Z,68.3160
2023-03-26T00:28:40.725Z,68.3648
2023-03-26T00:29:47.418Z,68.4192
2023-03-26T00:30:54.488Z,68.4797
2023-03-26T00:32:01.403Z,68.5495
2023-03-26T00:33:08.443Z,68.6376
2023-03-26T00:34:15.384Z,68.7044
2023-03-26T00:35:22.448Z,68.7778
2023-03-26T00:36:29.415Z,68.8351
2023-03-26T00:37:36.351Z,68.8530
2023-03-26T00:38:43.325Z,68.8865
2023-03-26T00:39:50.328Z,68.9105
2023-03-26T00:40:57.293Z,68.9472
2023-03-26T00:42:04.287Z,68.9561
2023-03-26T00:43:11.267Z,68.9795
2023-03-26T00:44:18.269Z,68.9668
2023-03-26T00:45:25.231Z,68.9538
2023-03-26T00:46:32.342Z,68.9218
2023-03-26T00:47:39.196Z,68.8829
2023-03-26T00:48:46.311Z,68.8405
2023-03-26T00:49:53.176Z,68.7728
2023-03-26T00:51:00.165Z,68.7210
2023-03-26T00:52:07.130Z,68.6758
2023-03-26T00:53:14.150Z,68.6177
2023-03-26T00:54:21.113Z,68.5829
2023-03-26T00:55:28.110Z,68.5995
2023-03-26T00:56:35.094Z,68.6202
2023-03-26T00:57:42.081Z,68.6436
2023-03-26T00:58:49.058Z,68.6521
2023-03-26T00:59:56.129Z,68.6673
2023-03-26T01:01:03.129Z,68.6440
2023-03-26T01:02:10.084Z,68.6688
2023-03-26T01:03:26.670Z,68.6695
2023-03-26T01:04:28.967Z,68.6880
2023-03-26T01:05:35.814Z,68.7182
2023-03-26T01:06:42.846Z,68.7254
2023-03-26T01:07:49.764Z,68.7308
2023-03-26T01:08:56.779Z,68.7187
2023-03-26T01:10:03.748Z,68.7066
2023-03-26T01:11:10.761Z,68.6938
2023-03-26T01:12:17.730Z,68.6884
2023-03-26T01:13:24.701Z,68.6929
2023-03-26T01:14:31.672Z,68.7232
2023-03-26T01:15:38.707Z,68.7057
2023-03-26T01:16:45.646Z,68.6749
2023-03-26T01:17:52.669Z,68.6472
2023-03-26T01:18:59.608Z,68.6551
2023-03-26T01:20:06.604Z,68.6652
2023-03-26T01:21:13.577Z,68.6850
2023-03-26T01:22:20.617Z,68.7131
2023-03-26T01:23:27.541Z,68.7770
2023-03-26T01:24:34.539Z,68.8475
2023-03-26T01:25:41.513Z,68.8946
2023-03-26T01:26:48.518Z,68.9376
2023-03-26T01:27:55.480Z,68.9630
2023-03-26T01:29:02.477Z,69.0006
2023-03-26T01:30:09.438Z,69.0417
2023-03-26T01:31:16.433Z,69.1025
2023-03-26T01:32:23.456Z,69.1817
2023-03-26T01:33:30.514Z,69.2145
2023-03-26T01:34:37.439Z,69.2495
2023-03-26T01:35:44.439Z,69.2859
2023-03-26T01:36:51.338Z,69.3282
2023-03-26T01:37:58.364Z,69.3823
2023-03-26T01:39:05.317Z,69.4342
2023-03-26T01:40:12.317Z,69.4768
2023-03-26T01:41:19.272Z,69.4943
2023-03-26T01:42:26.301Z,69.5140
2023-03-26T01:43:33.257Z,69.4965
2023-03-26T01:44:40.240Z,69.5071
2023-03-26T01:45:47.197Z,69.5312
2023-03-26T01:46:54.227Z,69.5632
2023-03-26T01:48:01.246Z,69.5690
2023-03-26T01:49:08.195Z,69.5705
2023-03-26T01:50:15.161Z,69.5800
2023-03-26T01:51:22.149Z,69.6090
2023-03-26T01:52:29.114Z,69.6249
2023-03-26T01:53:36.127Z,69.6800
2023-03-26T01:54:43.093Z,69.7251
2023-03-26T01:55:50.102Z,69.7429
2023-03-26T01:56:57.112Z,69.7442
2023-03-26T01:58:04.062Z,69.7324
2023-03-26T01:59:11.043Z,69.6964
2023-03-26T02:00:18.083Z,69.6662
2023-03-26T02:01:25.047Z,69.6716
2023-03-26T02:02:32.137Z,69.6696
2023-03-26T02:03:39.028Z,69.6433
2023-03-26T02:04:45.981Z,69.6493
2023-03-26T02:05:53.229Z,69.6709
2023-03-26T02:06:59.958Z,69.7056
2023-03-26T02:08:06.903Z,69.7174
2023-03-26T02:09:13.912Z,69.7238
2023-03-26T02:10:20.874Z,69.7239
2023-03-26T02:11:35.560Z,69.6668
2023-03-26T02:12:39.640Z,69.6313
2023-03-26T02:13:46.629Z,69.5847
2023-03-26T02:14:53.583Z,69.5610
2023-03-26T02:16:00.649Z,69.5389
2023-03-26T02:17:07.572Z,69.5366
2023-03-26T02:18:14.559Z,69.5350
2023-03-26T02:19:21.838Z,69.5216
2023-03-26T02:20:28.529Z,69.4817
2023-03-26T02:21:35.501Z,69.4386
2023-03-26T02:22:42.499Z,69.4866
2023-03-26T02:23:49.463Z,69.5417
2023-03-26T02:24:56.459Z,69.5814
2023-03-26T02:26:03.418Z,69.6265
2023-03-26T02:27:10.460Z,69.6559
2023-03-26T02:28:17.385Z,69.6470
2023-03-26T02:29:24.382Z,69.6380
2023-03-26T02:30:31.389Z,69.6417
2023-03-26T02:31:38.472Z,69.6417
2023-03-26T02:32:45.354Z,69.6373
2023-03-26T02:33:52.329Z,69.6249
2023-03-26T02:34:59.282Z,69.5914
2023-03-26T02:36:06.353Z,69.5541
2023-03-26T02:37:13.256Z,69.5573
2023-03-26T02:38:20.271Z,69.5346
2023-03-26T02:39:27.241Z,69.5182
2023-03-26T02:40:34.230Z,69.4692
2023-03-26T02:41:41.229Z,69.4350
2023-03-26T02:42:48.195Z,69.4463
2023-03-26T02:43:55.167Z,69.4847
2023-03-26T02:45:02.168Z,69.5471
2023-03-26T02:46:09.172Z,69.5501
2023-03-26T02:47:16.131Z,69.5728
2023-03-26T02:48:23.095Z,69.5954
2023-03-26T02:49:30.121Z,69.6203
2023-03-26T02:50:37.105Z,69.6748
2023-03-26T02:51:44.088Z,69.7387
2023-03-26T02:52:51.041Z,69.7839
2023-03-26T02:53:58.039Z,69.8339
2023-03-26T02:55:05.009Z,69.8778
2023-03-26T02:56:12.033Z,69.9187
2023-03-26T02:57:18.976Z,69.9448
2023-03-26T02:58:25.968Z,69.9448
2023-03-26T02:59:32.932Z,69.9103
2023-03-26T03:00:39.950Z,69.8911
2023-03-26T03:01:46.911Z,69.9292
2023-03-26T03:02:54.010Z,69.9770
2023-03-26T03:04:00.869Z,70.0193
2023-03-26T03:05:07.875Z,70.0435
2023-03-26T03:06:14.853Z,70.0376
2023-03-26T03:07:21.841Z,69.9878
2023-03-26T03:08:28.814Z,69.9567
2023-03-26T03:09:35.807Z,69.9282
2023-03-26T03:10:42.769Z,69.8815
2023-03-26T03:11:49.776Z,69.8261
2023-03-26T03:12:56.733Z,69.8045
2023-03-26T03:14:03.803Z,69.8340
2023-03-26T03:15:10.720Z,69.8904
2023-03-26T03:16:17.753Z,69.9153
2023-03-26T03:17:24.719Z,69.9265
2023-03-26T03:18:31.675Z,69.9427
2023-03-26T03:19:38.653Z,69.9678
2023-03-26T03:20:45.668Z,69.9940
2023-03-26T03:21:52.618Z,69.9918
2023-03-26T03:22:59.624Z,69.9601
2023-03-26T03:24:06.592Z,69.9436
2023-03-26T03:25:13.582Z,69.9242
2023-03-26T03:26:20.565Z,69.9278
2023-03-26T03:27:27.573Z,69.9504
2023-03-26T03:28:34.531Z,69.9463
2023-03-26T03:29:41.529Z,69.9275
2023-03-26T03:30:48.517Z,69.8586
2023-03-26T03:31:55.518Z,69.8050
2023-03-26T03:33:02.553Z,69.7985
2023-03-26T03:34:09.475Z,69.7929
2023-03-26T03:35:16.449Z,69.7993
2023-03-26T03:36:23.437Z,69.8045
2023-03-26T03:37:30.417Z,69.8345
2023-03-26T03:38:37.446Z,69.8349
2023-03-26T03:39:44.410Z,69.8035
2023-03-26T03:40:51.364Z,69.8092
2023-03-26T03:41:58.365Z,69.7928
2023-03-26T03:43:05.361Z,69.8260
2023-03-26T03:44:12.344Z,69.8777
2023-03-26T03:45:19.315Z,69.9037
2023-03-26T03:46:26.351Z,69.9280
2023-03-26T03:47:33.336Z,69.9650
2023-03-26T03:48:40.281Z,70.0006
2023-03-26T03:49:47.243Z,70.0437
2023-03-26T03:50:54.250Z,70.0908
2023-03-26T03:52:01.223Z,70.1103
2023-03-26T03:53:08.213Z,70.1201
2023-03-26T03:54:15.179Z,70.1395
2023-03-26T03:55:22.200Z,70.1189
2023-03-26T03:56:29.194Z,70.0894
2023-03-26T03:57:36.150Z,70.1223
2023-03-26T03:58:43.138Z,70.1344
2023-03-26T03:59:50.115Z,70.1706
2023-03-26T04:00:57.090Z,70.1796
2023-03-26T04:02:04.101Z,70.2086
2023-03-26T04:03:11.151Z,70.2575
2023-03-26T04:04:18.093Z,70.3272
2023-03-26T04:05:25.011Z,70.3742
2023-03-26T04:06:32.024Z,70.4068
2023-03-26T04:07:39.007Z,70.4176
2023-03-26T04:08:45.994Z,70.4262
2023-03-26T04:09:52.957Z,70.4427
2023-03-26T04:10:59.947Z,70.4576
2023-03-26T04:12:06.913Z,70.4716
2023-03-26T04:13:13.933Z,70.4972
2023-03-26T04:14:20.895Z,70.5158
2023-03-26T04:15:28.110Z,70.5695
2023-03-26T04:16:34.909Z,70.5929
2023-03-26T04:17:41.876Z,70.6214
2023-03-26T04:18:48.812Z,70.6373
2023-03-26T04:19:55.822Z,70.6637
2023-03-26T04:21:02.780Z,70.6495
2023-03-26T04:22:09.794Z,70.6100
2023-03-26T04:23:16.742Z,70.5869
2023-03-26T04:24:23.769Z,70.6059
2023-03-26T04:25:30.718Z,70.6519
2023-03-26T04:26:37.730Z,70.7262
2023-03-26T04:27:44.681Z,70.7853
2023-03-26T04:28:51.683Z,70.8221
2023-03-26T04:29:58.657Z,70.8192
2023-03-26T04:31:05.691Z,70.8377
2023-03-26T04:32:12.607Z,70.8594
2023-03-26T04:33:19.615Z,70.8529
2023-03-26T04:34:26.598Z,70.8221
2023-03-26T04:35:33.607Z,70.8145
2023-03-26T04:36:40.576Z,70.7673
2023-03-26T04:37:47.570Z,70.7315
2023-03-26T04:38:54.529Z,70.6683
2023-03-26T04:40:01.513Z,70.5801
2023-03-26T04:41:08.478Z,70.5070
2023-03-26T04:42:15.522Z,70.4378
2023-03-26T04:43:22.436Z,70.3480
2023-03-26T04:44:29.444Z,70.3093
2023-03-26T04:45:36.402Z,70.2906
2023-03-26T04:46:43.523Z,70.3039
2023-03-26T04:47:50.482Z,70.2942
2023-03-26T04:48:57.410Z,70.2747
2023-03-26T04:50:04.350Z,70.2715
2023-03-26T04:51:11.343Z,70.2604
2023-03-26T04:52:18.300Z,70.2607
2023-03-26T04:53:25.295Z,70.2584
2023-03-26T04:54:32.289Z,70.2507
2023-03-26T04:55:39.290Z,70.2371
2023-03-26T04:56:46.282Z,70.2138
2023-03-26T04:57:53.252Z,70.1889
2023-03-26T04:59:00.187Z,70.1502
2023-03-26T05:00:07.190Z,70.1264
2023-03-26T05:01:14.206Z,70.1391
2023-03-26T05:02:21.164Z,70.1774
2023-03-26T05:03:28.118Z,70.1827
2023-03-26T05:04:35.239Z,70.2236
2023-03-26T05:05:42.146Z,70.2813
2023-03-26T05:06:49.162Z,70.3134
2023-03-26T05:07:56.135Z,70.3426
2023-03-26T05:09:03.150Z,70.3732
2023-03-26T05:10:10.093Z,70.4082
2023-03-26T05:11:17.096Z,70.4156
2023-03-26T05:12:24.062Z,70.3684
2023-03-26T05:13:31.080Z,70.3048
2023-03-26T05:14:38.046Z,70.2451
2023-03-26T05:15:45.048Z,70.1949
2023-03-26T05:16:52.014Z,70.1668
2023-03-26T05:17:59.124Z,70.1777
2023-03-26T05:19:05.960Z,70.2057
2023-03-26T05:20:12.981Z,70.2037
2023-03-26T05:21:19.945Z,70.1699
2023-03-26T05:22:26.942Z,70.1656
2023-03-26T05:23:33.897Z,70.1585
2023-03-26T05:24:40.902Z,70.1747
2023-03-26T05:25:47.883Z,70.1944
2023-03-26T05:26:54.896Z,70.1997
2023-03-26T05:28:01.828Z,70.2011
2023-03-26T05:29:08.839Z,70.2438
2023-03-26T05:30:15.798Z,70.2854
2023-03-26T05:31:22.810Z,70.2994
2023-03-26T05:32:29.829Z,70.2940
2023-03-26T05:33:36.850Z,70.2933
2023-03-26T05:34:43.724Z,70.2735
2023-03-26T05:35:50.731Z,70.2994
2023-03-26T05:36:57.705Z,70.3237
2023-03-26T05:38:04.692Z,70.3278
2023-03-26T05:39:11.662Z,70.3650
2023-03-26T05:40:18.657Z,70.3849
2023-03-26T05:41:25.638Z,70.3986
2023-03-26T05:42:32.644Z,70.3942
2023-03-26T05:43:39.686Z,70.4325
2023-03-26T05:44:46.597Z,70.4567
2023-03-26T05:45:53.604Z,70.4771
2023-03-26T05:47:00.572Z,70.4587
2023-03-26T05:48:07.577Z,70.4768
2023-03-26T05:49:14.550Z,70.5243
2023-03-26T05:50:21.506Z,70.5405
2023-03-26T05:51:28.500Z,70.5829
2023-03-26T05:52:35.484Z,70.5842
2023-03-26T05:53:42.466Z,70.5324
2023-03-26T05:54:49.454Z,70.5195
2023-03-26T05:55:56.445Z,70.5163
2023-03-26T05:57:03.418Z,70.5033
2023-03-26T05:58:10.450Z,70.5537
2023-03-26T05:59:17.373Z,70.5562
2023-03-26T06:00:24.385Z,70.5630
2023-03-26T06:01:31.343Z,70.5711
2023-03-26T06:02:38.341Z,70.5684
2023-03-26T06:03:45.369Z,70.5802
2023-03-26T06:04:52.323Z,70.5656
2023-03-26T06:05:59.275Z,70.6374
2023-03-26T06:07:06.282Z,70.7062
2023-03-26T06:08:13.289Z,70.7634
2023-03-26T06:09:20.217Z,70.8751
2023-03-26T06:10:27.230Z,70.9769
2023-03-26T06:11:34.204Z,71.0561
2023-03-26T06:12:41.171Z,71.1066
2023-03-26T06:13:48.144Z,71.1521
2023-03-26T06:14:55.111Z,71.1867
2023-03-26T06:16:02.222Z,71.2266
2023-03-26T06:17:09.091Z,71.2503
2023-03-26T06:18:16.105Z,71.2910
2023-03-26T06:19:23.058Z,71.2947
2023-03-26T06:20:30.058Z,71.2888
2023-03-26T06:21:37.026Z,71.2979
2023-03-26T06:22:44.039Z,71.3075
2023-03-26T06:23:51.004Z,71.3866
2023-03-26T06:24:58.012Z,71.4538
2023-03-26T06:26:04.985Z,71.4840
2023-03-26T06:27:11.978Z,71.5030
2023-03-26T06:28:18.930Z,71.5436
2023-03-26T06:29:25.954Z,71.6020
2023-03-26T06:30:32.924Z,71.6410
2023-03-26T06:31:39.918Z,71.6443
2023-03-26T06:32:46.994Z,71.7099
2023-03-26T06:33:53.877Z,71.7627
2023-03-26T06:35:00.844Z,71.8967
2023-03-26T06:36:07.883Z,72.0822
2023-03-26T06:37:14.819Z,72.2842
2023-03-26T06:38:21.815Z,72.4365
2023-03-26T06:39:28.767Z,72.5598
2023-03-26T06:40:35.767Z,72.6554
2023-03-26T06:41:42.750Z,72.7033
2023-03-26T06:43:09.586Z,72.7873
2023-03-26T06:44:01.500Z,72.9237
2023-03-26T06:45:08.491Z,73.0844
2023-03-26T06:46:15.483Z,73.2053
2023-03-26T06:47:22.485Z,73.3605
2023-03-26T06:48:29.419Z,73.4733
2023-03-26T06:49:36.424Z,73.5583
2023-03-26T06:50:43.409Z,73.6898
2023-03-26T06:51:50.398Z,73.8299
2023-03-26T06:52:57.355Z,73.9874
2023-03-26T06:54:04.358Z,74.1195
2023-03-26T06:55:11.350Z,74.2456
2023-03-26T06:56:18.343Z,74.2952
2023-03-26T06:57:25.296Z,74.3696
2023-03-26T06:58:32.291Z,74.4577
2023-03-26T06:59:39.247Z,74.5498
2023-03-26T07:00:46.321Z,74.5675
2023-03-26T07:01:53.241Z,74.5692
2023-03-26T07:03:00.251Z,74.5884
2023-03-26T07:04:07.267Z,74.6384
2023-03-26T07:05:14.198Z,74.6996
2023-03-26T07:06:21.177Z,74.7456
2023-03-26T07:07:28.177Z,74.7656
2023-03-26T07:08:35.130Z,74.7986
2023-03-26T07:09:42.119Z,74.8669
2023-03-26T07:10:49.080Z,74.8815
2023-03-26T07:11:56.100Z,74.8585
2023-03-26T07:13:03.072Z,74.8789
2023-03-26T07:14:10.077Z,74.9520
2023-03-26T07:15:17.021Z,75.0464
2023-03-26T07:16:24.062Z,75.1118
2023-03-26T07:17:31.069Z,75.1602
2023-03-26T07:18:38.012Z,75.2147
2023-03-26T07:19:44.975Z,75.2982
2023-03-26T07:20:52.082Z,75.4215
2023-03-26T07:21:58.928Z,75.5171
2023-03-26T07:23:05.932Z,75.5708
2023-03-26T07:24:12.902Z,75.5394
2023-03-26T07:25:19.929Z,75.4509
2023-03-26T07:26:26.887Z,75.3915
2023-03-26T07:27:33.860Z,75.3689
2023-03-26T07:28:40.849Z,75.3292
2023-03-26T07:29:47.854Z,75.2633
2023-03-26T07:30:54.948Z,75.1973
2023-03-26T07:32:01.875Z,75.1282
2023-03-26T07:33:08.756Z,75.0896
2023-03-26T07:34:15.756Z,75.0781
2023-03-26T07:35:22.737Z,75.0532
2023-03-26T07:36:29.758Z,75.0266
2023-03-26T07:37:36.729Z,74.9942
2023-03-26T07:38:43.697Z,74.9733
2023-03-26T07:39:50.654Z,74.9531
2023-03-26T07:40:57.664Z,74.9564
2023-03-26T07:42:04.632Z,74.9855
2023-03-26T07:43:11.635Z,75.0221
2023-03-26T07:44:18.590Z,75.0057
2023-03-26T07:45:25.586Z,74.9573
2023-03-26T07:46:32.544Z,74.9251
2023-03-26T07:47:39.582Z,74.8350
2023-03-26T07:48:46.529Z,74.7547
2023-03-26T07:49:53.532Z,74.7050
2023-03-26T07:51:00.480Z,74.6344
2023-03-26T07:52:07.482Z,74.5736
2023-03-26T07:53:14.452Z,74.5268
2023-03-26T07:54:21.454Z,74.4601
2023-03-26T07:55:28.427Z,74.3890
2023-03-26T07:56:35.555Z,74.3411
2023-03-26T07:57:42.437Z,74.3105
2023-03-26T07:58:49.386Z,74.2240
2023-03-26T07:59:56.327Z,74.1565
2023-03-26T08:01:03.341Z,74.1161
2023-03-26T08:02:10.305Z,74.0670
2023-03-26T08:03:17.569Z,74.0447
2023-03-26T08:04:25.940Z,74.0943
2023-03-26T08:05:36.051Z,74.1682
2023-03-26T08:06:43.020Z,74.1673
2023-03-26T08:07:50.027Z,74.1426
2023-03-26T08:08:56.978Z,74.1225
2023-03-26T08:10:04.023Z,74.0720
2023-03-26T08:11:10.953Z,74.0183
2023-03-26T08:12:17.943Z,73.9939
2023-03-26T08:13:24.908Z,73.9319
2023-03-26T08:14:31.916Z,73.8645
2023-03-26T08:15:38.945Z,73.8245
2023-03-26T08:16:45.919Z,73.8251
2023-03-26T08:17:52.929Z,73.8558
2023-03-26T08:18:59.840Z,73.8795
2023-03-26T08:20:06.834Z,73.8689
2023-03-26T08:21:13.835Z,73.8647
2023-03-26T08:22:20.794Z,73.8931
2023-03-26T08:23:27.808Z,73.9352
2023-03-26T08:24:34.750Z,73.9868
2023-03-26T08:25:41.703Z,74.0227
2023-03-26T08:26:48.730Z,74.0497
2023-03-26T08:27:55.709Z,74.0834
2023-03-26T08:29:02.673Z,74.1110
2023-03-26T08:30:09.661Z,74.1227
2023-03-26T08:31:16.677Z,74.1397
2023-03-26T08:32:23.625Z,74.1874
2023-03-26T08:33:30.646Z,74.2132
2023-03-26T08:34:37.575Z,74.2594
2023-03-26T08:35:44.593Z,74.2859
2023-03-26T08:36:51.536Z,74.2993
2023-03-26T08:37:58.550Z,74.3116
2023-03-26T08:39:05.517Z,74.3364
2023-03-26T08:40:12.504Z,74.3775
2023-03-26T08:41:19.474Z,74.3772
2023-03-26T08:42:26.479Z,74.3321
2023-03-26T08:43:33.475Z,74.3403
2023-03-26T08:44:40.466Z,74.4337
2023-03-26T08:45:47.413Z,74.5304
2023-03-26T08:46:54.482Z,74.6348
2023-03-26T08:48:01.419Z,74.7552
2023-03-26T08:49:08.396Z,74.8965
2023-03-26T08:50:15.359Z,75.0389
2023-03-26T08:51:22.358Z,75.1020
2023-03-26T08:52:29.329Z,75.0965
2023-03-26T08:53:36.319Z,74.9912
2023-03-26T08:54:43.320Z,74.9087
2023-03-26T08:55:50.299Z,74.9792
2023-03-26T08:56:57.296Z,75.0233
2023-03-26T08:58:04.287Z,75.0101
2023-03-26T08:59:11.231Z,75.0371
2023-03-26T09:00:18.234Z,75.0752
2023-03-26T09:01:25.232Z,75.1429
2023-03-26T09:02:32.249Z,75.2849
2023-03-26T09:03:39.208Z,75.4119
2023-03-26T09:04:46.169Z,75.4696
2023-03-26T09:05:53.117Z,75.5404
2023-03-26T09:07:00.132Z,75.6808
2023-03-26T09:08:07.165Z,75.8242
2023-03-26T09:09:19.250Z,75.9670
2023-03-26T09:10:25.909Z,76.2132
2023-03-26T09:11:32.908Z,76.3796
2023-03-26T09:12:39.875Z,76.4978
2023-03-26T09:13:46.885Z,76.6199
2023-03-26T09:14:53.846Z,76.7068
2023-03-26T09:16:00.851Z,76.7834
2023-03-26T09:17:07.834Z,76.9174
2023-03-26T09:18:14.816Z,77.0752
2023-03-26T09:19:21.801Z,77.1555
2023-03-26T09:20:28.816Z,77.1966
2023-03-26T09:21:35.720Z,77.1532
2023-03-26T09:22:42.725Z,77.0994
2023-03-26T09:23:49.698Z,77.0615
2023-03-26T09:24:56.711Z,77.0275
2023-03-26T09:26:03.659Z,77.0278
2023-03-26T09:27:10.643Z,77.0600
2023-03-26T09:28:17.609Z,77.0526
2023-03-26T09:29:24.604Z,77.0312
2023-03-26T09:30:31.591Z,77.0149
2023-03-26T09:31:38.623Z,77.0268
2023-03-26T09:32:45.600Z,77.0506
2023-03-26T09:33:52.526Z,77.0756
2023-03-26T09:34:59.484Z,77.1101
2023-03-26T09:36:06.508Z,77.2030
2023-03-26T09:37:13.467Z,77.2718
2023-03-26T09:38:20.484Z,77.2392
2023-03-26T09:39:27.427Z,77.2332
2023-03-26T09:40:34.413Z,77.2677
2023-03-26T09:41:41.399Z,77.2796
2023-03-26T09:42:48.397Z,77.2158
2023-03-26T09:43:55.348Z,77.1150
2023-03-26T09:45:02.345Z,76.9721
2023-03-26T09:46:09.345Z,76.8166
2023-03-26T09:47:16.325Z,76.6806
2023-03-26T09:48:23.269Z,76.5605
2023-03-26T09:49:30.266Z,76.4331
2023-03-26T09:50:37.221Z,76.2887
2023-03-26T09:51:44.256Z,76.2110
2023-03-26T09:52:51.208Z,76.2163
2023-03-26T09:53:58.186Z,76.1794
2023-03-26T09:55:05.164Z,76.0901
2023-03-26T09:56:12.156Z,75.9933
2023-03-26T09:57:19.260Z,75.9346
2023-03-26T09:58:26.159Z,75.9278
2023-03-26T09:59:33.106Z,75.9587
2023-03-26T10:00:40.113Z,75.9561
2023-03-26T10:01:47.043Z,75.9070
2023-03-26T10:02:54.089Z,75.8786
2023-03-26T10:04:01.011Z,75.8183
2023-03-26T10:05:08.089Z,75.7204
2023-03-26T10:06:14.962Z,75.6364
2023-03-26T10:07:21.968Z,75.5641
2023-03-26T10:08:31.632Z,75.4502
2023-03-26T10:09:40.727Z,75.3468
2023-03-26T10:10:47.663Z,75.2474
2023-03-26T10:11:54.665Z,75.2071
2023-03-26T10:13:13.658Z,75.1912
2023-03-26T10:14:13.426Z,75.0847
2023-03-26T10:15:20.393Z,74.9902
2023-03-26T10:16:27.407Z,74.8461
2023-03-26T10:17:34.417Z,74.7381
2023-03-26T10:18:41.332Z,74.6368
2023-03-26T10:19:48.301Z,74.5654
2023-03-26T10:20:55.476Z,74.5144
2023-03-26T10:22:02.246Z,74.4311
2023-03-26T10:23:09.244Z,74.3681
2023-03-26T10:24:16.209Z,74.3469
2023-03-26T10:25:23.238Z,74.3410
2023-03-26T10:26:30.168Z,74.2971
2023-03-26T10:27:37.173Z,74.2234
2023-03-26T10:28:44.129Z,74.1551
2023-03-26T10:29:51.131Z,74.0420
2023-03-26T10:30:58.248Z,73.9538
2023-03-26T10:32:05.096Z,73.9168
2023-03-26T10:33:12.045Z,73.8664
2023-03-26T10:34:28.571Z,73.8669
2023-03-26T10:35:30.804Z,73.8242
2023-03-26T10:36:37.804Z,73.6847
2023-03-26T10:37:45.557Z,73.5306
2023-03-26T10:38:51.752Z,73.3930
2023-03-26T10:39:58.712Z,73.3411
2023-03-26T10:41:05.709Z,73.2056
2023-03-26T10:42:12.686Z,73.0682
2023-03-26T10:43:19.686Z,72.9589
2023-03-26T10:44:26.635Z,72.8931
2023-03-26T10:45:33.634Z,72.8082
2023-03-26T10:46:40.619Z,72.7222
2023-03-26T10:47:47.630Z,72.6612
2023-03-26T10:48:54.563Z,72.5583
2023-03-26T10:50:01.554Z,72.4874
2023-03-26T10:51:08.500Z,72.4306
2023-03-26T10:52:15.498Z,72.4013
2023-03-26T10:53:22.467Z,72.3568
2023-03-26T10:54:29.467Z,72.2619
2023-03-26T10:55:36.436Z,72.1659
2023-03-26T10:56:43.445Z,72.0652
2023-03-26T10:57:50.380Z,71.8913
2023-03-26T10:58:57.395Z,71.7137
2023-03-26T11:00:04.327Z,71.5158
2023-03-26T11:01:11.352Z,71.3321
2023-03-26T11:02:18.280Z,71.1865
2023-03-26T11:03:25.279Z,71.0711
2023-03-26T11:04:32.254Z,70.9526
2023-03-26T11:05:39.310Z,70.8475
2023-03-26T11:06:46.202Z,70.8176
2023-03-26T11:07:53.194Z,70.8003
2023-03-26T11:09:00.160Z,70.7230
2023-03-26T11:10:07.184Z,70.6354
2023-03-26T11:11:14.121Z,70.6251
2023-03-26T11:12:27.280Z,70.6029
2023-03-26T11:13:32.853Z,70.5098
2023-03-26T11:14:39.854Z,70.4599
2023-03-26T11:15:46.859Z,70.4460
2023-03-26T11:16:53.823Z,70.5180
2023-03-26T11:18:00.799Z,70.6317
2023-03-26T11:19:07.774Z,70.7824
2023-03-26T11:20:14.745Z,70.9281
2023-03-26T11:21:21.743Z,71.0557
2023-03-26T11:22:28.882Z,71.1866
2023-03-26T11:23:35.691Z,71.2879
2023-03-26T11:24:42.656Z,71.3385
2023-03-26T11:25:49.655Z,71.3836
2023-03-26T11:26:56.626Z,71.3375
2023-03-26T11:28:03.613Z,71.2212
2023-03-26T11:29:32.891Z,71.2992
2023-03-26T11:30:22.350Z,71.3963
2023-03-26T11:31:29.351Z,71.4304
2023-03-26T11:32:36.345Z,71.4505
2023-03-26T11:33:45.597Z,71.4277
2023-03-26T11:34:55.084Z,71.3508
2023-03-26T11:36:02.031Z,71.2975
2023-03-26T11:37:09.011Z,71.1746
2023-03-26T11:38:16.005Z,70.9637
2023-03-26T11:39:22.974Z,70.8070
2023-03-26T11:40:29.930Z,70.6390
2023-03-26T11:41:36.925Z,70.3454
2023-03-26T11:42:43.890Z,69.9399
2023-03-26T11:43:50.903Z,69.5537
2023-03-26T11:44:57.870Z,69.0823
2023-03-26T11:46:04.882Z,68.5847
2023-03-26T11:47:11.827Z,68.0886
2023-03-26T11:48:18.804Z,67.6054
2023-03-26T11:49:25.786Z,67.1645
2023-03-26T11:50:32.782Z,66.7207
2023-03-26T11:51:39.735Z,66.2348
2023-03-26T11:52:47.154Z,65.8917
2023-03-26T11:53:53.690Z,65.8719
2023-03-26T11:55:00.700Z,65.9409
2023-03-26T11:56:07.732Z,66.1187
2023-03-26T11:57:14.680Z,66.3003
2023-03-26T11:58:21.619Z,66.4350
2023-03-26T11:59:28.609Z,66.4737
2023-03-26T12:00:35.556Z,66.4243
2023-03-26T12:01:42.597Z,66.3091
2023-03-26T12:02:49.600Z,66.2066
2023-03-26T12:03:56.549Z,66.1123
2023-03-26T12:05:03.459Z,66.0796
2023-03-26T12:06:10.471Z,66.0635
2023-03-26T12:07:17.438Z,66.0565
2023-03-26T12:08:24.450Z,65.9991
2023-03-26T12:09:31.385Z,65.9430
2023-03-26T12:10:38.630Z,65.9110
2023-03-26T12:11:45.332Z,65.9045
2023-03-26T12:12:52.355Z,65.8671
2023-03-26T12:13:59.303Z,65.7693
2023-03-26T12:15:06.302Z,65.5162
2023-03-26T12:16:13.331Z,65.2214
2023-03-26T12:17:20.248Z,64.9363
2023-03-26T12:18:32.028Z,64.7206
2023-03-26T12:19:39.011Z,64.5442
2023-03-26T12:20:45.975Z,64.4245
2023-03-26T12:21:52.951Z,64.3399
2023-03-26T12:22:59.909Z,64.2367
2023-03-26T12:24:06.915Z,64.0306
2023-03-26T12:25:13.890Z,63.7885
2023-03-26T12:26:20.863Z,63.6339
2023-03-26T12:27:27.822Z,63.4869
2023-03-26T12:28:34.819Z,63.2864
2023-03-26T12:29:41.788Z,63.0494
2023-03-26T12:30:48.799Z,62.9270
2023-03-26T12:31:55.943Z,62.9001
2023-03-26T12:33:02.773Z,62.8258
2023-03-26T12:34:09.707Z,62.8103
2023-03-26T12:35:16.701Z,62.7861
2023-03-26T12:36:23.668Z,62.7752
2023-03-26T12:37:30.653Z,62.8637
2023-03-26T12:38:37.621Z,63.0587
2023-03-26T12:40:09.944Z,63.2403
2023-03-26T12:40:56.455Z,63.3900
2023-03-26T12:43:40.603Z,63.5105
2023-03-26T12:44:54.027Z,63.6244
2023-03-26T12:44:55.724Z,63.6479
2023-03-26T12:45:38.673Z,63.6459
2023-03-26T12:47:58.245Z,63.5011
2023-03-26T12:48:03.889Z,63.2468
2023-03-26T12:49:09.237Z,62.9533
2023-03-26T12:50:16.105Z,62.5536
2023-03-26T12:51:23.112Z,62.4076
2023-03-26T12:52:30.076Z,62.3512
2023-03-26T12:53:37.087Z,62.2789
2023-03-26T12:54:44.024Z,62.1695
2023-03-26T12:55:51.033Z,62.0951
2023-03-26T12:57:11.401Z,62.0358
2023-03-26T12:58:14.031Z,61.8200
2023-03-26T12:59:21.533Z,61.5876
2023-03-26T13:00:28.513Z,61.4942
2023-03-26T13:01:35.508Z,61.5223
2023-03-26T13:02:42.519Z,61.5190
2023-03-26T13:03:51.821Z,61.4537
2023-03-26T13:05:06.425Z,61.4306
2023-03-26T13:06:12.970Z,61.4307
2023-03-26T13:07:19.949Z,61.3365
2023-03-26T13:08:26.908Z,61.2059
2023-03-26T13:09:33.926Z,61.1108
2023-03-26T13:10:40.906Z,61.0802
2023-03-26T13:11:47.855Z,61.0532
2023-03-26T13:12:54.842Z,60.8693
2023-03-26T13:14:01.814Z,60.5103
2023-03-26T13:15:08.870Z,60.2551
2023-03-26T13:16:15.850Z,60.0248
2023-03-26T13:17:22.923Z,59.8542
2023-03-26T13:18:29.803Z,59.7049
2023-03-26T13:19:36.782Z,59.5804
2023-03-26T13:20:43.752Z,59.4264
2023-03-26T13:21:53.017Z,59.2269
2023-03-26T13:23:02.505Z,59.1617
2023-03-26T13:24:09.505Z,59.1759
2023-03-26T13:25:16.465Z,59.1563
2023-03-26T13:26:23.453Z,59.1243
2023-03-26T13:27:30.413Z,59.1579
2023-03-26T13:28:37.403Z,59.2924
2023-03-26T13:29:44.375Z,59.4827
2023-03-26T13:30:51.409Z,59.6664
2023-03-26T13:31:58.361Z,59.8239